createdAt,value
2019-06-27T00:06:01.563Z,0
2019-06-27T00:06:42.055Z,0
2019-06-27T00:07:22.548Z,0
2019-06-27T00:08:03.038Z,0
2019-06-27T00:08:43.531Z,0
2019-06-27T00:09:24.030Z,0
2019-06-27T00:10:04.541Z,0
2019-06-27T00:10:45.025Z,0
2019-06-27T00:11:25.520Z,0
2019-06-27T00:12:06.008Z,0
2019-06-27T00:12:46.506Z,0
2019-06-27T00:18:51.898Z,0
2019-06-27T00:19:32.388Z,0
2019-06-27T00:20:12.884Z,0
2019-06-27T00:20:53.362Z,0
2019-06-27T00:21:33.842Z,0
2019-06-27T00:22:14.332Z,0
2019-06-27T00:22:54.854Z,0
2019-06-27T00:23:35.320Z,0
2019-06-27T00:24:15.810Z,0
2019-06-27T00:24:56.245Z,0
2019-06-27T00:30:32.400Z,0
2019-06-27T00:31:15.563Z,0
2019-06-27T00:31:56.148Z,0
2019-06-27T00:32:36.694Z,0
2019-06-27T00:33:17.268Z,0
2019-06-27T00:33:57.644Z,0
2019-06-27T00:34:38.193Z,0
2019-06-27T00:35:18.641Z,0
2019-06-27T00:35:59.062Z,0
2019-06-27T00:36:39.547Z,0
2019-06-27T00:37:20.074Z,0
2019-06-27T00:38:00.525Z,0
2019-06-27T00:38:41.040Z,0
2019-06-27T00:43:25.910Z,0
2019-06-27T00:44:06.448Z,0
2019-06-27T00:44:46.927Z,0
2019-06-27T00:45:27.409Z,0
2019-06-27T00:46:07.837Z,0
2019-06-27T00:47:28.842Z,0
2019-06-27T00:48:09.359Z,0
2019-06-27T00:48:51.692Z,0
2019-06-27T00:54:56.130Z,0
2019-06-27T00:55:36.638Z,0
2019-06-27T00:56:17.145Z,0
2019-06-27T00:57:12.766Z,0
2019-06-27T00:57:38.048Z,0
2019-06-27T00:58:18.550Z,0
2019-06-27T00:58:58.962Z,0
2019-06-27T00:59:39.459Z,0
2019-06-27T01:00:19.945Z,0
2019-06-27T01:01:00.379Z,0
2019-06-27T01:01:40.835Z,0
2019-06-27T01:06:26.242Z,0
2019-06-27T01:07:06.866Z,0
2019-06-27T01:07:50.981Z,0
2019-06-27T01:14:35.923Z,0
2019-06-27T01:15:16.403Z,0
2019-06-27T01:15:56.871Z,0
2019-06-27T01:16:37.497Z,0
2019-06-27T01:17:17.916Z,0
2019-06-27T01:18:00.183Z,0
2019-06-27T01:18:40.718Z,0
2019-06-27T01:26:06.294Z,0
2019-06-27T01:26:46.736Z,0
2019-06-27T01:27:30.155Z,0
2019-06-27T01:28:07.709Z,0
2019-06-27T01:28:48.251Z,0
2019-06-27T01:29:28.842Z,0
2019-06-27T01:30:11.068Z,0
2019-06-27T01:34:56.293Z,0
2019-06-27T01:35:36.745Z,0
2019-06-27T01:36:17.244Z,0
2019-06-27T01:36:57.749Z,0
2019-06-27T01:37:38.211Z,0
2019-06-27T01:38:18.668Z,0
2019-06-27T01:38:59.166Z,0
2019-06-27T01:39:39.628Z,0
2019-06-27T01:40:20.107Z,0
2019-06-27T01:41:00.610Z,0
2019-06-27T01:45:06.495Z,0
2019-06-27T01:45:46.965Z,0
2019-06-27T01:46:27.423Z,0
2019-06-27T01:47:07.953Z,0
2019-06-27T01:47:48.425Z,0
2019-06-27T01:48:28.910Z,0
2019-06-27T01:49:09.389Z,0
2019-06-27T01:49:50.018Z,0
2019-06-27T01:50:30.488Z,0
2019-06-27T01:51:11.000Z,0
2019-06-27T01:58:36.296Z,0
2019-06-27T01:59:16.896Z,0
2019-06-27T01:59:57.393Z,0
2019-06-27T02:00:39.361Z,0
2019-06-27T02:01:19.845Z,0
2019-06-27T02:02:00.359Z,0
2019-06-27T02:02:40.817Z,0
2019-06-27T02:06:46.080Z,0
2019-06-27T02:07:26.527Z,0
2019-06-27T02:08:07.039Z,0
2019-06-27T02:08:47.689Z,0
2019-06-27T02:09:33.252Z,0
2019-06-27T02:10:10.270Z,0
2019-06-27T02:10:50.735Z,0
2019-06-27T02:18:16.220Z,0
2019-06-27T02:18:56.714Z,0
2019-06-27T02:19:37.215Z,0
2019-06-27T02:20:17.719Z,0
2019-06-27T02:20:58.134Z,0
2019-06-27T02:21:38.607Z,0
2019-06-27T02:22:19.055Z,0
2019-06-27T02:22:59.538Z,0
2019-06-27T02:23:40.055Z,0
2019-06-27T02:24:20.479Z,0
2019-06-27T02:32:26.381Z,0
2019-06-27T02:33:06.808Z,0
2019-06-27T02:33:47.307Z,0
2019-06-27T02:34:27.772Z,0
2019-06-27T02:35:08.248Z,0
2019-06-27T02:35:48.726Z,0
2019-06-27T02:36:30.811Z,0
2019-06-27T02:43:56.077Z,0
2019-06-27T02:44:36.573Z,0
2019-06-27T02:45:17.046Z,0
2019-06-27T02:45:57.523Z,0
2019-06-27T02:46:37.976Z,0
2019-06-27T02:47:18.455Z,0
2019-06-27T02:47:58.967Z,0
2019-06-27T02:48:39.484Z,0
2019-06-27T02:49:19.962Z,0
2019-06-27T02:50:00.456Z,0
2019-06-27T02:50:40.927Z,0
2019-06-27T02:58:27.309Z,0
2019-06-27T02:58:46.713Z,0
2019-06-27T02:59:27.190Z,0
2019-06-27T03:00:07.650Z,0
2019-06-27T03:00:48.182Z,0
2019-06-27T03:01:28.632Z,0
2019-06-27T03:02:09.114Z,0
2019-06-27T03:02:49.661Z,0
2019-06-27T03:03:30.109Z,0
2019-06-27T03:04:10.751Z,0
2019-06-27T03:09:36.267Z,0
2019-06-27T03:10:18.600Z,0
2019-06-27T03:10:59.118Z,0
2019-06-27T03:11:39.563Z,0
2019-06-27T03:12:20.042Z,0
2019-06-27T03:13:00.582Z,0
2019-06-27T03:20:25.913Z,0
2019-06-27T03:21:06.454Z,0
2019-06-27T03:21:48.523Z,0
2019-06-27T03:22:29.008Z,0
2019-06-27T03:23:09.472Z,0
2019-06-27T03:23:50.161Z,0
2019-06-27T03:24:30.568Z,0
2019-06-27T03:29:56.234Z,0
2019-06-27T03:30:36.701Z,0
2019-06-27T03:31:17.167Z,0
2019-06-27T03:31:57.647Z,0
2019-06-27T03:32:38.148Z,0
2019-06-27T03:33:18.798Z,0
2019-06-27T03:33:59.213Z,0
2019-06-27T03:34:39.734Z,5
2019-06-27T03:35:20.280Z,5
2019-06-27T03:36:00.837Z,5
2019-06-27T03:40:47.861Z,5
2019-06-27T03:41:28.305Z,5
2019-06-27T03:42:09.847Z,5
2019-06-27T03:42:50.266Z,5
2019-06-27T03:43:30.736Z,5
2019-06-27T03:50:56.476Z,10
2019-06-27T03:51:36.521Z,10
2019-06-27T03:52:16.976Z,10
2019-06-27T03:52:57.484Z,10
2019-06-27T03:53:37.974Z,10
2019-06-27T03:54:18.420Z,10
2019-06-27T03:55:39.448Z,10
2019-06-27T03:56:19.918Z,15
2019-06-27T03:57:00.407Z,15
2019-06-27T03:57:46.252Z,15
2019-06-27T03:58:26.721Z,15
2019-06-27T03:59:12.601Z,15
2019-06-27T03:59:47.675Z,15
2019-06-27T04:00:28.160Z,15
2019-06-27T04:01:08.735Z,15
2019-06-27T04:01:49.211Z,15
2019-06-27T04:03:10.582Z,15
2019-06-27T04:07:57.482Z,20
2019-06-27T04:08:37.962Z,20
2019-06-27T04:09:18.478Z,20
2019-06-27T04:10:00.659Z,20
2019-06-27T04:17:26.410Z,70
2019-06-27T04:18:06.935Z,90
2019-06-27T04:18:49.176Z,105
2019-06-27T04:19:29.571Z,110
2019-06-27T04:20:10.060Z,120
2019-06-27T04:20:50.606Z,125
2019-06-27T04:26:16.268Z,125
2019-06-27T04:26:56.755Z,115
2019-06-27T04:27:37.211Z,100
2019-06-27T04:28:17.751Z,100
2019-06-27T05:09:39.311Z,165
2019-06-27T05:10:19.705Z,175
2019-06-27T05:11:01.044Z,185
2019-06-27T05:12:21.958Z,185
2019-06-27T05:19:47.785Z,225
2019-06-27T05:20:28.347Z,220
2019-06-27T05:21:09.795Z,225
2019-06-27T05:21:50.263Z,175
2019-06-27T05:22:30.807Z,230
2019-06-27T05:29:17.355Z,250
2019-06-27T05:30:08.506Z,255
2019-06-27T05:30:38.386Z,260
2019-06-27T05:31:18.840Z,255
2019-06-27T05:31:59.264Z,260
2019-06-27T05:32:39.737Z,260
2019-06-27T05:33:20.609Z,265
2019-06-27T05:34:01.093Z,270
2019-06-27T05:34:41.555Z,275
2019-06-27T05:37:28.325Z,280
2019-06-27T05:38:08.924Z,285
2019-06-27T05:38:49.414Z,280
2019-06-27T05:39:29.893Z,275
2019-06-27T05:40:10.401Z,285
2019-06-27T05:40:50.874Z,220
2019-06-27T05:41:31.567Z,285
2019-06-27T05:48:57.073Z,185
2019-06-27T05:49:37.527Z,320
2019-06-27T05:50:18.185Z,325
2019-06-27T05:50:59.389Z,250
2019-06-27T05:51:39.868Z,310
2019-06-27T05:52:20.641Z,335
2019-06-27T05:53:01.032Z,345
2019-06-27T05:56:27.189Z,355
2019-06-27T05:58:51.988Z,245
2019-06-27T05:59:31.340Z,180
2019-06-27T06:00:26.514Z,170
2019-06-27T06:00:54.365Z,190
2019-06-27T06:01:34.863Z,310
2019-06-27T06:05:42.172Z,320
2019-06-27T06:07:03.106Z,180
2019-06-27T06:07:46.175Z,165
2019-06-27T06:12:35.039Z,390
2019-06-27T06:18:04.303Z,450
2019-06-27T06:18:44.792Z,495
2019-06-27T06:19:25.314Z,490
2019-06-27T06:20:07.117Z,480
2019-06-27T06:22:09.478Z,505
2019-06-27T06:22:49.949Z,560
2019-06-27T06:23:30.453Z,735
2019-06-27T06:24:12.589Z,1005
2019-06-27T06:29:39.494Z,940
2019-06-27T06:30:20.540Z,975
2019-06-27T06:31:01.319Z,1040
2019-06-27T06:31:41.924Z,1050
2019-06-27T06:32:22.588Z,1035
2019-06-27T06:33:03.067Z,1030
2019-06-27T06:33:43.568Z,765
2019-06-27T06:34:24.027Z,1020
2019-06-27T06:37:49.355Z,705
2019-06-27T06:39:11.411Z,215
2019-06-27T06:39:51.625Z,230
2019-06-27T06:40:32.855Z,190
2019-06-27T06:41:13.712Z,355
2019-06-27T06:43:59.141Z,285
2019-06-27T06:44:40.192Z,825
2019-06-27T06:45:20.490Z,345
2019-06-27T06:46:01.383Z,1155
2019-06-27T06:46:42.304Z,1285
2019-06-27T06:47:25.110Z,735
2019-06-27T06:50:10.450Z,515
2019-06-27T06:50:51.369Z,370
2019-06-27T06:51:32.259Z,475
2019-06-27T06:52:15.183Z,450
2019-06-27T06:53:40.393Z,505
2019-06-27T06:54:23.167Z,520
2019-06-27T06:58:30.563Z,340
2019-06-27T06:59:11.696Z,495
2019-06-27T06:59:52.371Z,420
2019-06-27T07:01:59.238Z,370
2019-06-27T07:02:39.868Z,370
2019-06-27T07:03:21.401Z,475
2019-06-27T07:04:01.916Z,460
2019-06-27T07:04:42.551Z,480
2019-06-27T07:06:50.018Z,490
2019-06-27T07:07:30.883Z,510
2019-06-27T07:08:11.082Z,505
2019-06-27T07:08:54.044Z,510
2019-06-27T07:12:59.916Z,525
2019-06-27T07:13:43.954Z,515
2019-06-27T07:17:09.773Z,505
2019-06-27T07:17:50.685Z,525
2019-06-27T07:18:32.898Z,535
2019-06-27T07:19:14.475Z,515
2019-06-27T07:21:19.743Z,475
2019-06-27T07:22:01.416Z,470
2019-06-27T07:22:41.899Z,460
2019-06-27T07:23:22.394Z,455
2019-06-27T07:24:03.308Z,450
2019-06-27T07:24:44.060Z,445
2019-06-27T07:29:29.093Z,385
2019-06-27T07:30:09.770Z,370
2019-06-27T07:30:50.698Z,355
2019-06-27T07:31:31.716Z,325
2019-06-27T07:32:13.468Z,290
2019-06-27T07:36:19.017Z,215
2019-06-27T07:36:59.777Z,210
2019-06-27T07:37:40.417Z,205
2019-06-27T07:38:21.026Z,195
2019-06-27T07:39:01.668Z,195
2019-06-27T07:42:21.995Z,170
2019-06-27T07:43:02.997Z,170
2019-06-27T07:43:43.296Z,165
2019-06-27T07:46:26.998Z,150
2019-06-27T07:47:07.552Z,150
2019-06-27T07:47:48.235Z,145
2019-06-27T07:48:29.027Z,145
2019-06-27T07:49:10.344Z,140
2019-06-27T07:53:56.958Z,130
2019-06-27T07:54:37.099Z,130
2019-06-27T07:55:19.852Z,130
2019-06-27T07:56:01.369Z,130
2019-06-27T08:01:34.775Z,115
2019-06-27T08:02:07.758Z,115
2019-06-27T08:02:48.339Z,115
2019-06-27T08:03:29.065Z,115
2019-06-27T08:04:09.912Z,110
2019-06-27T08:04:50.492Z,110
2019-06-27T08:05:31.244Z,110
2019-06-27T08:10:17.505Z,105
2019-06-27T08:11:00.550Z,105
2019-06-27T08:11:41.007Z,105
2019-06-27T08:14:28.121Z,100
2019-06-27T08:15:08.422Z,100
2019-06-27T08:15:49.745Z,100
2019-06-27T08:16:31.062Z,95
2019-06-27T08:17:11.153Z,95
2019-06-27T08:17:51.697Z,95
2019-06-27T08:22:09.887Z,90
2019-06-27T08:22:50.362Z,90
2019-06-27T08:23:41.328Z,90
2019-06-27T08:25:34.829Z,90
2019-06-27T08:28:13.746Z,90
2019-06-27T08:28:54.197Z,90
2019-06-27T08:29:34.900Z,85
2019-06-27T08:31:50.791Z,85
2019-06-27T08:32:19.523Z,85
2019-06-27T08:33:00.105Z,85
2019-06-27T08:33:40.683Z,85
2019-06-27T08:34:21.163Z,85
2019-06-27T08:35:01.795Z,85
2019-06-27T08:35:43.206Z,85
2019-06-27T08:41:08.309Z,80
2019-06-27T08:41:48.828Z,80
2019-06-27T08:42:29.958Z,80
2019-06-27T08:43:10.528Z,80
2019-06-27T08:43:51.112Z,80
2019-06-27T08:44:31.623Z,80
2019-06-27T08:45:12.367Z,80
2019-06-27T08:51:17.891Z,75
2019-06-27T08:51:58.384Z,75
2019-06-27T08:52:38.875Z,75
2019-06-27T08:55:07.096Z,75
2019-06-27T08:55:47.598Z,75
2019-06-27T08:56:28.079Z,75
2019-06-27T09:01:11.850Z,75
2019-06-27T09:02:07.210Z,75
2019-06-27T09:02:33.196Z,75
2019-06-27T09:03:13.681Z,75
2019-06-27T09:03:55.294Z,75
2019-06-27T09:04:35.243Z,70
2019-06-27T09:05:15.597Z,70
2019-06-27T09:05:56.247Z,70
2019-06-27T09:11:25.427Z,70
2019-06-27T09:12:05.848Z,70
2019-06-27T09:22:28.686Z,70
2019-06-27T09:23:09.147Z,70
2019-06-27T09:23:49.649Z,70
2019-06-27T09:26:32.911Z,65
2019-06-27T09:27:13.816Z,65
2019-06-27T09:27:57.001Z,65
2019-06-27T09:30:42.966Z,65
2019-06-27T09:31:23.225Z,65
2019-06-27T09:32:03.704Z,65
2019-06-27T09:32:44.354Z,65
2019-06-27T09:33:24.912Z,65
2019-06-27T09:34:07.427Z,65
2019-06-27T09:37:33.257Z,65
2019-06-27T09:38:14.053Z,65
2019-06-27T09:38:54.711Z,65
2019-06-27T09:39:35.415Z,65
2019-06-27T09:40:16.005Z,65
2019-06-27T09:40:57.733Z,65
2019-06-27T09:43:03.515Z,65
2019-06-27T09:43:44.693Z,65
2019-06-27T09:44:25.282Z,65
2019-06-27T09:45:06.476Z,65
2019-06-27T09:45:47.333Z,65
2019-06-27T09:49:54.791Z,65
2019-06-27T09:50:35.712Z,65
2019-06-27T09:53:14.180Z,60
2019-06-27T09:53:54.922Z,60
2019-06-27T09:54:36.156Z,60
2019-06-27T09:56:38.808Z,60
2019-06-27T09:57:19.826Z,60
2019-06-27T09:58:01.115Z,60
2019-06-27T09:58:42.206Z,60
2019-06-27T10:01:28.709Z,60
2019-06-27T10:02:09.242Z,60
2019-06-27T10:02:49.662Z,60
2019-06-27T10:03:30.300Z,60
2019-06-27T10:08:21.751Z,60
2019-06-27T10:09:02.393Z,60
2019-06-27T10:09:42.810Z,60
2019-06-27T10:13:05.630Z,60
2019-06-27T10:13:46.043Z,60
2019-06-27T10:14:26.526Z,60
2019-06-27T10:15:07.119Z,60
2019-06-27T10:15:47.583Z,60
2019-06-27T10:16:28.081Z,60
2019-06-27T10:17:08.570Z,60
2019-06-27T10:17:49.066Z,60
2019-06-27T10:18:29.521Z,60
2019-06-27T10:19:10.123Z,60
2019-06-27T10:23:55.623Z,60
2019-06-27T10:24:36.082Z,60
2019-06-27T10:25:16.634Z,60
2019-06-27T10:25:58.054Z,60
2019-06-27T10:26:38.516Z,60
2019-06-27T10:27:19.881Z,60
2019-06-27T11:08:02.981Z,55
2019-06-27T11:08:43.469Z,55
2019-06-27T11:09:24.012Z,55
2019-06-27T11:14:07.706Z,55
2019-06-27T11:14:58.497Z,55
2019-06-27T11:15:29.899Z,55
2019-06-27T11:16:12.480Z,55
2019-06-27T11:21:08.921Z,55
2019-06-27T11:21:49.693Z,55
2019-06-27T11:22:30.886Z,55
2019-06-27T11:25:53.782Z,55
2019-06-27T11:26:34.294Z,55
2019-06-27T11:27:14.820Z,55
2019-06-27T11:29:24.019Z,55
2019-06-27T11:30:04.566Z,55
2019-06-27T11:30:46.582Z,55
2019-06-27T11:31:27.061Z,55
2019-06-27T11:32:07.794Z,55
2019-06-27T11:32:48.241Z,55
2019-06-27T11:37:33.801Z,55
2019-06-27T11:38:16.316Z,55
2019-06-27T11:38:57.032Z,55
2019-06-27T11:40:23.886Z,55
2019-06-27T11:41:08.322Z,55
2019-06-27T11:45:13.656Z,55
2019-06-27T11:45:56.721Z,55
2019-06-27T11:46:37.231Z,55
2019-06-27T11:47:17.761Z,55
2019-06-27T11:47:58.192Z,55
2019-06-27T11:50:45.320Z,55
2019-06-27T11:51:25.885Z,55
2019-06-27T11:52:06.394Z,55
2019-06-27T11:54:15.266Z,55
2019-06-27T11:56:23.628Z,55
2019-06-27T11:58:34.133Z,55
2019-06-27T11:59:14.779Z,55
2019-06-27T11:59:55.358Z,55
2019-06-27T12:00:35.880Z,55
2019-06-27T12:04:46.216Z,55
2019-06-27T12:05:26.829Z,55
2019-06-27T12:06:07.343Z,55
2019-06-27T12:06:47.863Z,55
2019-06-27T12:10:15.765Z,55
2019-06-27T12:10:56.226Z,55
2019-06-27T12:11:37.587Z,50
2019-06-27T12:15:04.173Z,50
2019-06-27T12:15:44.944Z,50
2019-06-27T12:16:27.828Z,50
2019-06-27T12:17:08.514Z,50
2019-06-27T12:19:14.255Z,50
2019-06-27T12:19:55.338Z,50
2019-06-27T12:20:36.813Z,50
2019-06-27T12:24:45.106Z,50
2019-06-27T12:25:26.675Z,50
2019-06-27T12:28:15.391Z,50
2019-06-27T12:28:55.993Z,50
2019-06-27T12:29:36.557Z,50
2019-06-27T12:30:17.333Z,50
2019-06-27T12:32:25.579Z,50
2019-06-27T12:33:08.070Z,50
2019-06-27T12:34:02.198Z,50
2019-06-27T12:37:53.818Z,50
2019-06-27T12:38:34.339Z,50
2019-06-27T12:39:14.852Z,50
2019-06-27T12:42:07.104Z,50
2019-06-27T12:42:50.246Z,50
2019-06-27T12:43:35.159Z,55
2019-06-27T12:44:16.080Z,50
2019-06-27T12:44:56.696Z,50
2019-06-27T12:45:37.272Z,50
2019-06-27T12:46:17.664Z,50
2019-06-27T12:49:07.362Z,50
2019-06-27T12:50:01.035Z,50
2019-06-27T12:51:53.623Z,50
2019-06-27T12:53:13.878Z,50
2019-06-27T12:53:55.884Z,50
2019-06-27T12:58:21.810Z,50
2019-06-27T12:59:02.169Z,50
2019-06-27T12:59:42.842Z,50
2019-06-27T13:00:28.606Z,50
2019-06-27T13:01:09.109Z,50
2019-06-27T13:01:49.605Z,50
2019-06-27T13:02:30.718Z,50
2019-06-27T13:07:16.729Z,50
2019-06-27T13:07:57.289Z,50
2019-06-27T13:08:37.825Z,50
2019-06-27T13:09:18.257Z,50
2019-06-27T13:09:58.815Z,50
2019-06-27T13:10:39.290Z,50
2019-06-27T13:11:19.763Z,50
2019-06-27T13:12:00.252Z,50
2019-06-27T13:12:40.665Z,50
2019-06-27T13:17:27.257Z,50
2019-06-27T13:18:07.698Z,50
2019-06-27T13:18:49.808Z,50
2019-06-27T13:19:30.389Z,50
2019-06-27T13:20:10.835Z,50
2019-06-27T13:22:58.082Z,50
2019-06-27T13:23:38.593Z,50
2019-06-27T13:24:20.461Z,50
2019-06-27T13:29:06.053Z,50
2019-06-27T13:29:46.251Z,50
2019-06-27T13:30:28.310Z,50
2019-06-27T13:31:08.883Z,50
2019-06-27T13:32:30.142Z,50
2019-06-27T13:33:10.730Z,50
2019-06-27T13:35:17.178Z,50
2019-06-27T13:35:57.643Z,50
2019-06-27T13:36:38.168Z,50
2019-06-27T13:37:19.129Z,50
2019-06-27T13:37:59.639Z,45
2019-06-27T13:38:40.413Z,45
2019-06-27T13:39:20.958Z,45
2019-06-27T13:42:06.251Z,45
2019-06-27T13:42:47.648Z,45
2019-06-27T13:43:28.441Z,45
2019-06-27T13:44:09.090Z,45
2019-06-27T13:44:49.561Z,45
2019-06-27T13:45:30.134Z,45
2019-06-27T13:47:37.109Z,45
2019-06-27T13:48:17.637Z,45
2019-06-27T13:48:58.150Z,45
2019-06-27T13:49:38.712Z,45
2019-06-27T13:50:19.331Z,45
2019-06-27T13:53:18.291Z,50
2019-06-27T13:53:58.576Z,45
2019-06-27T13:54:51.366Z,50
2019-06-27T13:55:31.765Z,45
2019-06-27T13:56:12.267Z,50
2019-06-27T13:56:52.711Z,50
2019-06-27T13:57:33.792Z,50
2019-06-27T13:58:21.047Z,50
2019-06-27T13:59:03.457Z,50
2019-06-27T13:59:43.192Z,50
2019-06-27T14:00:24.132Z,50
2019-06-27T14:01:04.845Z,50
2019-06-27T14:01:45.486Z,50
2019-06-27T14:04:30.900Z,50
2019-06-27T14:05:11.434Z,50
2019-06-27T14:05:51.964Z,50
2019-06-27T14:06:32.483Z,50
2019-06-27T14:07:13.492Z,50
2019-06-27T14:07:54.066Z,50
2019-06-27T14:08:35.445Z,50
2019-06-27T14:09:22.672Z,50
2019-06-27T14:13:21.735Z,50
2019-06-27T14:14:02.267Z,50
2019-06-27T14:14:58.709Z,50
2019-06-27T14:15:23.224Z,45
2019-06-27T14:16:05.891Z,45
2019-06-27T14:16:44.221Z,45
2019-06-27T14:17:24.790Z,45
2019-06-27T14:19:32.828Z,45
2019-06-27T14:20:13.410Z,45
2019-06-27T14:20:57.233Z,45
2019-06-27T14:24:24.070Z,45
2019-06-27T14:25:04.798Z,45
2019-06-27T14:25:45.658Z,45
2019-06-27T14:27:12.947Z,45
2019-06-27T14:27:52.767Z,45
2019-06-27T14:28:35.563Z,45
2019-06-27T14:29:21.347Z,45
2019-06-27T14:30:03.459Z,45
2019-06-27T14:30:44.952Z,45
2019-06-27T14:32:53.493Z,45
2019-06-27T14:33:32.472Z,45
2019-06-27T14:34:13.183Z,45
2019-06-27T14:34:54.583Z,45
2019-06-27T14:35:34.616Z,45
2019-06-27T14:36:16.475Z,45
2019-06-27T14:39:41.496Z,45
2019-06-27T14:40:21.403Z,45
2019-06-27T14:41:01.918Z,45
2019-06-27T14:41:43.571Z,45
2019-06-27T14:42:23.643Z,45
2019-06-27T14:43:04.413Z,45
2019-06-27T14:45:52.263Z,45
2019-06-27T14:46:36.426Z,45
2019-06-27T14:47:14.595Z,45
2019-06-27T14:47:55.339Z,45
2019-06-27T14:49:21.023Z,45
2019-06-27T14:50:02.862Z,45
2019-06-27T14:50:45.300Z,45
2019-06-27T14:52:51.194Z,45
2019-06-27T14:53:32.341Z,45
2019-06-27T14:54:12.908Z,40
2019-06-27T14:54:53.530Z,40
2019-06-27T14:55:34.076Z,40
2019-06-27T14:59:01.121Z,40
2019-06-27T14:59:41.880Z,40
2019-06-27T15:00:22.528Z,40
2019-06-27T15:01:05.880Z,40
2019-06-27T15:01:44.291Z,40
2019-06-27T15:06:32.952Z,40
2019-06-27T15:07:15.000Z,40
2019-06-27T15:09:21.642Z,40
2019-06-27T15:10:01.919Z,40
2019-06-27T15:10:42.925Z,40
2019-06-27T15:11:24.098Z,40
2019-06-27T15:12:05.463Z,40
2019-06-27T15:14:51.590Z,40
2019-06-27T15:15:33.111Z,40
2019-06-27T15:16:13.499Z,40
2019-06-27T15:16:54.506Z,40
2019-06-27T15:17:34.999Z,40
2019-06-27T15:19:44.032Z,40
2019-06-27T15:20:24.150Z,40
2019-06-27T15:25:12.997Z,40
2019-06-27T15:25:53.002Z,40
2019-06-27T15:26:33.668Z,40
2019-06-27T15:27:15.493Z,40
2019-06-27T15:30:01.868Z,40
2019-06-27T15:30:42.574Z,40
2019-06-27T15:31:23.533Z,40
2019-06-27T15:32:04.991Z,40
2019-06-27T15:32:44.981Z,40
2019-06-27T15:44:24.204Z,35
2019-06-27T15:45:06.352Z,35
2019-06-27T15:45:46.997Z,35
2019-06-27T15:46:28.621Z,35
2019-06-27T15:50:35.774Z,35
2019-06-27T15:51:16.613Z,35
2019-06-27T15:51:59.908Z,35
2019-06-27T15:54:04.881Z,35
2019-06-27T15:54:46.949Z,35
2019-06-27T15:56:58.911Z,35
2019-06-27T15:59:46.597Z,35
2019-06-27T16:00:28.245Z,35
2019-06-27T16:01:08.129Z,35
2019-06-27T16:03:56.297Z,35
2019-06-27T16:04:38.259Z,35
2019-06-27T16:05:19.926Z,35
2019-06-27T16:07:24.835Z,35
2019-06-27T16:08:05.443Z,35
2019-06-27T16:08:46.111Z,35
2019-06-27T16:11:34.576Z,35
2019-06-27T16:12:15.601Z,35
2019-06-27T16:13:01.330Z,35
2019-06-27T16:13:38.461Z,35
2019-06-27T16:14:19.161Z,35
2019-06-27T16:16:25.649Z,35
2019-06-27T16:17:07.838Z,35
2019-06-27T16:17:48.446Z,35
2019-06-27T16:21:14.750Z,35
2019-06-27T16:21:55.489Z,35
2019-06-27T16:22:36.215Z,35
2019-06-27T16:23:16.642Z,35
2019-06-27T16:23:57.301Z,35
2019-06-27T16:24:38.315Z,35
2019-06-27T16:25:18.937Z,35
2019-06-27T16:27:24.898Z,35
2019-06-27T16:28:05.520Z,35
2019-06-27T16:28:46.057Z,35
2019-06-27T16:29:26.650Z,35
2019-06-27T16:30:07.346Z,35
2019-06-27T16:30:47.974Z,35
2019-06-27T17:10:59.576Z,30
2019-06-27T17:11:40.075Z,30
2019-06-27T17:12:20.558Z,30
2019-06-27T17:17:04.451Z,30
2019-06-27T17:17:45.027Z,30
2019-06-27T17:18:25.588Z,25
2019-06-27T17:19:06.117Z,25
2019-06-27T17:19:46.578Z,25
2019-06-27T17:20:27.039Z,25
2019-06-27T17:21:07.546Z,25
2019-06-27T17:21:48.060Z,25
2019-06-27T17:22:28.444Z,25
2019-06-27T17:23:08.961Z,25
2019-06-27T17:23:49.429Z,25
2019-06-27T17:27:15.389Z,25
2019-06-27T17:27:55.850Z,25
2019-06-27T17:28:36.332Z,25
2019-06-27T17:29:16.857Z,25
2019-06-27T17:29:57.335Z,25
2019-06-27T17:30:38.741Z,25
2019-06-27T17:31:19.273Z,25
2019-06-27T17:38:48.384Z,25
2019-06-27T17:39:28.850Z,25
2019-06-27T17:40:10.190Z,25
2019-06-27T17:47:34.744Z,25
2019-06-27T17:48:15.315Z,25
2019-06-27T17:48:55.761Z,25
2019-06-27T17:49:36.276Z,25
2019-06-27T17:50:16.780Z,25
2019-06-27T17:50:57.308Z,25
2019-06-27T17:51:37.915Z,25
2019-06-27T17:52:18.552Z,25
2019-06-27T17:52:58.817Z,25
2019-06-27T17:53:39.355Z,25
2019-06-27T18:01:45.816Z,20
2019-06-27T18:02:26.212Z,20
2019-06-27T18:03:06.727Z,20
2019-06-27T18:03:47.170Z,20
2019-06-27T18:04:27.638Z,20
2019-06-27T18:05:08.118Z,20
2019-06-27T18:05:48.554Z,20
2019-06-27T18:06:29.012Z,20
2019-06-27T18:07:14.555Z,20
2019-06-27T18:07:51.786Z,20
2019-06-27T18:15:17.119Z,20
2019-06-27T18:15:57.623Z,20
2019-06-27T18:16:38.122Z,20
2019-06-27T18:17:32.242Z,20
2019-06-27T18:17:59.113Z,20
2019-06-27T18:18:39.737Z,20
2019-06-27T18:19:20.200Z,20
2019-06-27T18:20:00.781Z,20
2019-06-27T18:20:41.252Z,20
2019-06-27T18:21:21.692Z,20
2019-06-27T18:28:47.192Z,15
2019-06-27T18:29:27.705Z,15
2019-06-27T18:30:08.297Z,15
2019-06-27T18:30:48.751Z,15
2019-06-27T18:31:29.490Z,15
2019-06-27T18:32:09.740Z,15
2019-06-27T18:37:37.787Z,15
2019-06-27T18:38:17.985Z,15
2019-06-27T18:38:58.576Z,15
2019-06-27T18:39:39.100Z,15
2019-06-27T18:40:19.910Z,15
2019-06-27T18:41:00.405Z,15
2019-06-27T18:41:40.852Z,15
2019-06-27T18:42:21.425Z,15
2019-06-27T18:49:07.346Z,10
2019-06-27T18:49:47.885Z,10
2019-06-27T18:50:28.296Z,10
2019-06-27T18:51:09.091Z,10
2019-06-27T18:51:49.689Z,10
2019-06-27T18:52:30.200Z,10
2019-06-27T18:53:10.900Z,10
2019-06-27T18:53:51.408Z,10
2019-06-27T19:01:17.186Z,10
2019-06-27T19:01:57.649Z,10
2019-06-27T19:02:38.146Z,10
2019-06-27T19:03:18.733Z,10
2019-06-27T19:03:59.195Z,10
2019-06-27T19:04:39.683Z,10
2019-06-27T19:05:20.200Z,10
2019-06-27T19:06:00.669Z,10
2019-06-27T19:06:41.297Z,10
2019-06-27T19:07:21.749Z,10
2019-06-27T19:13:27.602Z,5
2019-06-27T19:14:08.093Z,5
2019-06-27T19:14:49.550Z,5
2019-06-27T19:15:30.031Z,5
2019-06-27T19:16:10.573Z,5
2019-06-27T19:16:50.994Z,5
2019-06-27T19:17:31.450Z,5
2019-06-27T19:22:57.147Z,5
2019-06-27T19:23:37.683Z,5
2019-06-27T19:24:18.247Z,5
2019-06-27T19:24:58.686Z,5
2019-06-27T19:25:39.507Z,5
2019-06-27T19:26:20.000Z,5
2019-06-27T19:27:00.493Z,5
2019-06-27T19:27:41.032Z,5
2019-06-27T19:35:07.347Z,0
2019-06-27T19:35:48.049Z,0
2019-06-27T19:36:28.605Z,0
2019-06-27T19:37:09.102Z,0
2019-06-27T19:38:01.236Z,0
2019-06-27T19:38:30.218Z,0
2019-06-27T19:39:10.763Z,0
2019-06-27T19:39:51.258Z,0
2019-06-27T19:40:31.737Z,0
2019-06-27T19:47:16.963Z,0
2019-06-27T19:47:57.419Z,0
2019-06-27T19:48:37.915Z,0
2019-06-27T19:49:18.349Z,0
2019-06-27T19:49:58.800Z,0
2019-06-27T19:50:39.421Z,0
2019-06-27T19:51:19.842Z,0
2019-06-27T19:52:00.341Z,0
2019-06-27T19:52:40.828Z,0
2019-06-27T19:53:21.313Z,0
2019-06-27T19:54:01.814Z,0
2019-06-27T20:01:27.141Z,0
2019-06-27T20:02:07.569Z,0
2019-06-27T20:02:48.009Z,0
2019-06-27T20:03:28.562Z,0
2019-06-27T20:04:08.965Z,0
2019-06-27T20:04:49.438Z,0
2019-06-27T20:05:29.908Z,0
2019-06-27T20:06:10.373Z,0
2019-06-27T20:06:51.952Z,0
2019-06-27T20:08:57.237Z,0
2019-06-27T20:09:37.726Z,0
2019-06-27T20:10:18.232Z,0
2019-06-27T20:10:58.625Z,0
2019-06-27T20:11:39.097Z,0
2019-06-27T20:12:20.591Z,0
2019-06-27T20:13:01.559Z,0
2019-06-27T20:20:28.143Z,0
2019-06-27T20:21:08.662Z,0
2019-06-27T20:21:49.177Z,0
2019-06-27T20:22:30.585Z,0
2019-06-27T20:23:11.089Z,0
2019-06-27T20:23:51.500Z,0
2019-06-27T20:27:56.814Z,0
2019-06-27T20:28:37.372Z,0
2019-06-27T20:29:18.466Z,0
2019-06-27T20:29:59.027Z,0
2019-06-27T20:30:39.501Z,0
2019-06-27T20:31:20.908Z,0
2019-06-27T20:32:00.476Z,0
2019-06-27T20:32:41.109Z,0
2019-06-27T20:33:21.702Z,0
2019-06-27T20:40:07.060Z,0
2019-06-27T20:40:47.533Z,0
2019-06-27T20:41:29.398Z,0
2019-06-27T20:42:08.575Z,0
2019-06-27T20:42:49.200Z,0
2019-06-27T20:43:29.685Z,0
2019-06-27T20:44:10.216Z,0
2019-06-27T20:44:50.769Z,0
2019-06-27T20:45:31.256Z,0
2019-06-27T20:46:11.818Z,0
2019-06-27T20:52:17.229Z,0
2019-06-27T20:52:57.722Z,0
2019-06-27T20:53:39.113Z,0
2019-06-27T20:54:19.584Z,0
2019-06-27T20:55:00.052Z,0
2019-06-27T20:55:40.537Z,0
2019-06-27T20:56:21.017Z,0
2019-06-27T20:57:01.656Z,0
2019-06-27T21:04:26.993Z,0
2019-06-27T21:05:07.457Z,0
2019-06-27T21:05:47.937Z,0
2019-06-27T21:06:28.425Z,0